createdAt,value
2018-07-24T00:00:14.667Z,101503.72
2018-07-24T00:03:18.909Z,101499.53
2018-07-24T00:06:23.204Z,101497.26
2018-07-24T00:09:27.422Z,101501.37
2018-07-24T00:12:31.624Z,101504.64
2018-07-24T00:15:35.935Z,101498.55
2018-07-24T00:18:40.164Z,101502.37
2018-07-24T00:21:44.376Z,101508.39
2018-07-24T00:24:48.610Z,101511.13
2018-07-24T00:27:52.815Z,101506.98
2018-07-24T00:30:56.825Z,101506.12
2018-07-24T00:34:01.037Z,101500.84
2018-07-24T00:37:05.416Z,101503.60
2018-07-24T00:40:09.616Z,101496.98
2018-07-24T00:43:13.904Z,101493.94
2018-07-24T00:46:18.128Z,101488.91
2018-07-24T00:49:22.368Z,101485.58
2018-07-24T00:52:26.596Z,101481.13
2018-07-24T00:55:30.810Z,101479.17
2018-07-24T00:58:35.153Z,101478.57
2018-07-24T01:01:39.384Z,101477.69
2018-07-24T01:04:43.611Z,101486.46
2018-07-24T01:07:47.821Z,101483.92
2018-07-24T01:10:52.024Z,101477.30
2018-07-24T01:13:56.260Z,101481.13
2018-07-24T01:17:00.472Z,101492.41
2018-07-24T01:20:05.376Z,101478.64
2018-07-24T01:23:09.583Z,101485.51
2018-07-24T01:26:13.924Z,101478.64
2018-07-24T01:29:18.135Z,101483.02
2018-07-24T01:32:22.369Z,101472.80
2018-07-24T01:35:26.625Z,101468.41
2018-07-24T01:38:30.826Z,101472.73
2018-07-24T01:41:35.048Z,101468.84
2018-07-24T01:44:39.269Z,101462.99
2018-07-24T01:47:43.524Z,101456.59
2018-07-24T01:50:47.726Z,101461.49
2018-07-24T01:53:51.949Z,101461.75
2018-07-24T01:56:56.152Z,101467.81
2018-07-24T02:00:00.385Z,101462.23
2018-07-24T02:03:04.608Z,101465.77
2018-07-24T02:06:08.828Z,101465.42
2018-07-24T02:09:13.045Z,101465.65
2018-07-24T02:12:17.285Z,101465.31
2018-07-24T02:15:21.445Z,101462.55
2018-07-24T02:18:25.661Z,101462.29
2018-07-24T02:21:29.928Z,101457.91
2018-07-24T02:24:34.169Z,101457.07
2018-07-24T02:27:38.382Z,101455.89
2018-07-24T02:30:42.633Z,101452.73
2018-07-24T02:33:46.861Z,101453.18
2018-07-24T02:36:51.108Z,101459.07
2018-07-24T02:39:55.349Z,101456.48
2018-07-24T02:42:59.570Z,101464.17
2018-07-24T02:46:03.828Z,101458.68
2018-07-24T02:49:08.063Z,101456.12
2018-07-24T02:52:12.260Z,101461.61
2018-07-24T02:55:16.472Z,101457.81
2018-07-24T02:58:20.684Z,101461.34
2018-07-24T03:01:24.898Z,101458.62
2018-07-24T03:04:29.109Z,101449.88
2018-07-24T03:07:33.362Z,101449.88
2018-07-24T03:10:37.581Z,101455.42
2018-07-24T03:13:41.581Z,101454.92
2018-07-24T03:16:45.789Z,101451.39
2018-07-24T03:19:50.056Z,101460.25
2018-07-24T03:22:54.266Z,101451.19
2018-07-24T03:25:58.493Z,101460.30
2018-07-24T03:29:02.733Z,101458.40
2018-07-24T03:32:07.012Z,101458.91
2018-07-24T03:35:11.242Z,101458.03
2018-07-24T03:38:15.469Z,101466.50
2018-07-24T03:41:19.713Z,101465.85
2018-07-24T03:44:23.913Z,101462.20
2018-07-24T03:47:28.191Z,101462.71
2018-07-24T03:50:32.405Z,101466.30
2018-07-24T03:53:36.618Z,101467.17
2018-07-24T03:56:40.832Z,101466.10
2018-07-24T03:59:45.081Z,101469.10
2018-07-24T04:02:49.283Z,101464.98
2018-07-24T04:05:53.665Z,101469.41
2018-07-24T04:08:57.873Z,101468.32
2018-07-24T04:12:02.099Z,101465.04
2018-07-24T04:15:06.446Z,101458.45
2018-07-24T04:18:10.665Z,101459.32
2018-07-24T04:21:15.753Z,101458.54
2018-07-24T04:24:19.973Z,101456.12
2018-07-24T04:27:24.204Z,101455.38
2018-07-24T04:30:28.407Z,101452.65
2018-07-24T04:33:32.628Z,101454.61
2018-07-24T04:36:36.841Z,101452.51
2018-07-24T04:39:41.060Z,101454.22
2018-07-24T04:42:45.308Z,101457.27
2018-07-24T04:45:49.499Z,101454.52
2018-07-24T04:48:53.736Z,101457.27
2018-07-24T04:51:57.952Z,101457.05
2018-07-24T04:55:02.164Z,101454.30
2018-07-24T04:58:06.513Z,101454.24
2018-07-24T05:01:10.705Z,101458.90
2018-07-24T05:04:14.954Z,101459.48
2018-07-24T05:07:19.148Z,101468.67
2018-07-24T05:10:23.604Z,101463.28
2018-07-24T05:13:27.786Z,101464.81
2018-07-24T05:16:32.028Z,101467.92
2018-07-24T05:19:36.250Z,101464.16
2018-07-24T05:22:40.473Z,101466.72
2018-07-24T05:25:44.735Z,101474.25
2018-07-24T05:28:49.076Z,101481.42
2018-07-24T05:31:53.292Z,101474.02
2018-07-24T05:34:57.525Z,101473.24
2018-07-24T05:38:01.746Z,101474.42
2018-07-24T05:41:05.948Z,101478.69
2018-07-24T05:44:10.245Z,101485.06
2018-07-24T05:47:14.452Z,101485.97
2018-07-24T05:50:19.453Z,101490.75
2018-07-24T05:53:23.678Z,101491.14
2018-07-24T05:56:27.968Z,101491.53
2018-07-24T05:59:32.176Z,101488.08
2018-07-24T06:02:36.380Z,101482.98
2018-07-24T06:05:40.655Z,101484.76
2018-07-24T06:08:44.870Z,101488.14
2018-07-24T06:11:49.081Z,101483.06
2018-07-24T06:14:53.313Z,101485.38
2018-07-24T06:17:57.563Z,101485.73
2018-07-24T06:21:01.811Z,101488.06
2018-07-24T06:24:06.046Z,101481.53
2018-07-24T06:27:10.394Z,101477.20
2018-07-24T06:30:14.621Z,101482.98
2018-07-24T06:33:18.847Z,101478.88
2018-07-24T06:36:23.116Z,101480.80
2018-07-24T06:39:27.346Z,101481.36
2018-07-24T06:42:31.633Z,101475.02
2018-07-24T06:45:35.909Z,101480.00
2018-07-24T06:48:40.154Z,101482.48
2018-07-24T06:51:44.488Z,101477.55
2018-07-24T06:54:48.642Z,101477.05
2018-07-24T06:57:52.845Z,101470.98
2018-07-24T07:00:57.119Z,101476.30
2018-07-24T07:04:01.330Z,101477.11
2018-07-24T07:07:05.745Z,101476.28
2018-07-24T07:10:10.330Z,101466.54
2018-07-24T07:13:14.554Z,101466.27
2018-07-24T07:16:18.786Z,101465.16
2018-07-24T07:19:23.006Z,101463.15
2018-07-24T07:22:27.229Z,101457.78
2018-07-24T07:25:31.446Z,101463.00
2018-07-24T07:28:35.654Z,101454.02
2018-07-24T07:31:39.904Z,101454.47
2018-07-24T07:34:44.089Z,101457.31
2018-07-24T07:37:48.332Z,101461.30
2018-07-24T07:40:52.525Z,101460.55
2018-07-24T07:43:56.775Z,101453.40
2018-07-24T07:47:00.991Z,101457.42
2018-07-24T07:50:05.229Z,101449.30
2018-07-24T07:53:09.437Z,101448.64
2018-07-24T07:56:13.674Z,101441.73
2018-07-24T07:59:17.880Z,101440.11
2018-07-24T08:02:22.173Z,101441.83
2018-07-24T08:05:26.357Z,101432.45
2018-07-24T08:08:30.577Z,101435.55
2018-07-24T08:11:34.825Z,101436.20
2018-07-24T08:14:39.060Z,101442.16
2018-07-24T08:17:43.301Z,101430.80
2018-07-24T08:20:47.553Z,101434.02
2018-07-24T08:23:51.725Z,101433.73
2018-07-24T08:26:55.937Z,101436.74
2018-07-24T08:30:00.147Z,101425.83
2018-07-24T08:33:04.381Z,101430.52
2018-07-24T08:36:08.576Z,101430.19
2018-07-24T08:39:13.436Z,101435.67
2018-07-24T08:42:17.680Z,101432.91
2018-07-24T08:45:21.913Z,101426.22
2018-07-24T08:48:26.181Z,101432.79
2018-07-24T08:51:30.384Z,101433.71
2018-07-24T08:54:34.720Z,101430.75
2018-07-24T08:57:38.890Z,101429.73
2018-07-24T09:00:43.110Z,101437.03
2018-07-24T09:03:47.356Z,101436.20
2018-07-24T09:06:51.581Z,101436.72
2018-07-24T09:09:55.785Z,101431.45
2018-07-24T09:12:59.985Z,101433.53
2018-07-24T09:16:04.186Z,101430.06
2018-07-24T09:19:08.894Z,101431.00
2018-07-24T09:22:13.113Z,101433.31
2018-07-24T09:25:17.345Z,101432.95
2018-07-24T09:28:21.585Z,101433.08
2018-07-24T09:31:25.784Z,101425.77
2018-07-24T09:34:30.019Z,101431.92
2018-07-24T09:37:34.241Z,101425.00
2018-07-24T09:40:38.465Z,101429.16
2018-07-24T09:43:42.863Z,101427.88
2018-07-24T09:46:47.134Z,101421.72
2018-07-24T09:49:51.343Z,101433.92
2018-07-24T09:52:55.600Z,101429.58
2018-07-24T09:55:59.828Z,101427.77
2018-07-24T09:59:04.064Z,101424.97
2018-07-24T10:02:08.257Z,101428.92
2018-07-24T10:05:12.505Z,101416.29
2018-07-24T10:08:16.760Z,101423.09
2018-07-24T10:11:21.089Z,101416.02
2018-07-24T10:14:25.351Z,101413.64
2018-07-24T10:17:29.581Z,101411.52
2018-07-24T10:20:33.804Z,101407.91
2018-07-24T10:23:38.026Z,101410.41
2018-07-24T10:26:42.283Z,101406.53
2018-07-24T10:29:46.545Z,101404.05
2018-07-24T10:32:50.789Z,101396.33
2018-07-24T10:35:54.834Z,101399.93
2018-07-24T10:38:59.077Z,101409.56
2018-07-24T10:42:03.324Z,101390.42
2018-07-24T10:45:07.620Z,101399.31
2018-07-24T10:48:11.850Z,101397.41
2018-07-24T10:51:16.101Z,101399.24
2018-07-24T10:54:20.304Z,101391.56
2018-07-24T10:57:24.552Z,101399.37
2018-07-24T11:00:28.785Z,101398.08
2018-07-24T11:03:33.008Z,101391.07
2018-07-24T11:06:37.233Z,101388.66
2018-07-24T11:09:41.509Z,101390.68
2018-07-24T11:12:45.741Z,101392.42
2018-07-24T11:15:49.998Z,101380.53
2018-07-24T11:18:54.233Z,101387.73
2018-07-24T11:21:58.578Z,101389.13
2018-07-24T11:25:02.825Z,101386.03
2018-07-24T11:28:07.097Z,101381.21
2018-07-24T11:31:11.351Z,101377.56
2018-07-24T11:34:15.584Z,101383.52
2018-07-24T11:37:19.852Z,101383.00
2018-07-24T11:40:24.117Z,101378.38
2018-07-24T11:43:28.393Z,101378.80
2018-07-24T11:46:32.731Z,101373.72
2018-07-24T11:49:36.917Z,101369.37
2018-07-24T11:52:41.176Z,101376.32
2018-07-24T11:55:45.392Z,101369.38
2018-07-24T11:58:49.683Z,101377.61
2018-07-24T12:01:53.957Z,101364.45
2018-07-24T12:04:58.197Z,101360.97
2018-07-24T12:08:02.436Z,101372.61
2018-07-24T12:11:06.881Z,101368.70
2018-07-24T12:14:11.276Z,101356.23
2018-07-24T12:17:15.518Z,101362.75
2018-07-24T12:20:19.913Z,101354.69
2018-07-24T12:23:24.168Z,101351.54
2018-07-24T12:26:28.424Z,101351.50
2018-07-24T12:29:32.656Z,101344.69
2018-07-24T12:32:36.916Z,101338.09
2018-07-24T12:35:41.187Z,101328.66
2018-07-24T12:38:45.456Z,101336.83
2018-07-24T12:41:49.676Z,101337.95
2018-07-24T12:44:53.945Z,101337.69
2018-07-24T12:47:58.247Z,101336.92
2018-07-24T12:51:02.562Z,101331.59
2018-07-24T12:54:06.930Z,101332.70
2018-07-24T12:57:11.205Z,101322.46
2018-07-24T13:00:15.444Z,101315.31
2018-07-24T13:03:19.688Z,101311.04
2018-07-24T13:06:23.977Z,101321.18
2018-07-24T13:09:28.248Z,101317.81
2018-07-24T13:12:32.480Z,101303.86
2018-07-24T13:15:36.726Z,101313.23
2018-07-24T13:18:40.961Z,101312.63
2018-07-24T13:21:45.278Z,101306.45
2018-07-24T13:24:49.511Z,101312.91
2018-07-24T13:27:54.057Z,101312.20
2018-07-24T13:30:58.305Z,101308.34
2018-07-24T13:34:02.607Z,101308.91
2018-07-24T13:37:06.825Z,101302.50
2018-07-24T13:40:11.091Z,101305.19
2018-07-24T13:43:15.338Z,101296.77
2018-07-24T13:46:19.585Z,101300.05
2018-07-24T13:49:23.833Z,101296.89
2018-07-24T13:52:28.099Z,101296.94
2018-07-24T13:55:32.350Z,101288.06
2018-07-24T13:58:36.600Z,101290.39
2018-07-24T14:01:40.847Z,101286.75
2018-07-24T14:04:45.101Z,101282.53
2018-07-24T14:07:49.362Z,101272.83
2018-07-24T14:10:53.633Z,101275.77
2018-07-24T14:13:57.903Z,101271.19
2018-07-24T14:17:02.166Z,101279.59
2018-07-24T14:20:06.470Z,101274.92
2018-07-24T14:23:10.781Z,101272.45
2018-07-24T14:26:14.986Z,101274.44
2018-07-24T14:29:19.259Z,101282.97
2018-07-24T14:32:23.617Z,101280.27
2018-07-24T14:35:27.949Z,101273.59
2018-07-24T14:38:32.270Z,101274.32
2018-07-24T14:41:36.525Z,101272.05
2018-07-24T14:44:41.301Z,101268.25
2018-07-24T14:47:45.585Z,101270.82
2018-07-24T14:50:49.865Z,101271.40
2018-07-24T14:53:54.137Z,101281.33
2018-07-24T14:56:58.419Z,101284.15
2018-07-24T15:00:02.637Z,101280.19
2018-07-24T15:03:06.545Z,101278.59
2018-07-24T15:06:10.780Z,101277.98
2018-07-24T15:09:15.010Z,101275.14
2018-07-24T15:12:19.208Z,101277.95
2018-07-24T15:15:23.433Z,101275.83
2018-07-24T15:18:27.656Z,101280.06
2018-07-24T15:21:31.886Z,101280.50
2018-07-24T15:24:36.232Z,101279.44
2018-07-24T15:27:40.561Z,101282.05
2018-07-24T15:30:44.776Z,101275.16
2018-07-24T15:33:48.986Z,101273.44
2018-07-24T15:36:53.233Z,101274.22
2018-07-24T15:39:57.453Z,101274.41
2018-07-24T15:43:01.679Z,101272.72
2018-07-24T15:46:06.016Z,101270.63
2018-07-24T15:49:10.266Z,101277.91
2018-07-24T15:52:14.516Z,101275.82
2018-07-24T15:55:19.761Z,101266.77
2018-07-24T15:58:23.981Z,101276.45
2018-07-24T16:01:28.220Z,101275.08
2018-07-24T16:04:32.461Z,101270.55
2018-07-24T16:07:36.692Z,101270.05
2018-07-24T16:10:40.899Z,101263.27
2018-07-24T16:13:45.194Z,101271.45
2018-07-24T16:16:49.466Z,101267.35
2018-07-24T16:19:53.802Z,101275.58
2018-07-24T16:22:58.061Z,101270.58
2018-07-24T16:26:02.281Z,101272.72
2018-07-24T16:29:06.997Z,101266.38
2018-07-24T16:32:11.257Z,101267.07
2018-07-24T16:35:15.460Z,101267.63
2018-07-24T16:38:19.701Z,101265.78
2018-07-24T16:41:23.957Z,101262.52
2018-07-24T16:44:28.176Z,101261.09
2018-07-24T16:47:32.412Z,101258.38
2018-07-24T16:50:36.661Z,101260.69
2018-07-24T16:53:40.888Z,101258.09
2018-07-24T16:56:45.181Z,101259.45
2018-07-24T16:59:49.403Z,101256.06
2018-07-24T17:02:53.664Z,101251.14
2018-07-24T17:05:57.852Z,101251.13
2018-07-24T17:09:02.061Z,101253.43
2018-07-24T17:12:06.473Z,101246.59
2018-07-24T17:15:10.736Z,101249.63
2018-07-24T17:18:14.948Z,101247.72
2018-07-24T17:21:19.168Z,101250.61
2018-07-24T17:24:23.525Z,101253.07
2018-07-24T17:27:27.807Z,101246.52
2018-07-24T17:30:31.984Z,101247.26
2018-07-24T17:33:36.221Z,101244.16
2018-07-24T17:36:40.445Z,101242.45
2018-07-24T17:39:44.717Z,101237.05
2018-07-24T17:42:48.954Z,101244.39
2018-07-24T17:45:53.162Z,101244.70
2018-07-24T17:48:57.422Z,101243.19
2018-07-24T17:52:02.073Z,101245.98
2018-07-24T17:55:06.569Z,101241.34
2018-07-24T17:58:10.781Z,101242.05
2018-07-24T18:01:15.013Z,101245.83
2018-07-24T18:04:19.246Z,101244.73
2018-07-24T18:07:23.453Z,101246.84
2018-07-24T18:10:27.673Z,101246.54
2018-07-24T18:13:31.898Z,101251.14
2018-07-24T18:16:36.105Z,101252.61
2018-07-24T18:19:40.372Z,101254.02
2018-07-24T18:22:44.588Z,101255.52
2018-07-24T18:25:48.764Z,101253.70
2018-07-24T18:28:53.017Z,101253.66
2018-07-24T18:31:57.240Z,101257.51
2018-07-24T18:35:01.236Z,101249.22
2018-07-24T18:38:05.497Z,101248.50
2018-07-24T18:41:09.748Z,101255.95
2018-07-24T18:44:13.973Z,101253.92
2018-07-24T18:47:18.294Z,101249.06
2018-07-24T18:50:22.497Z,101251.46
2018-07-24T18:53:26.761Z,101251.95
2018-07-24T18:56:30.966Z,101252.48
2018-07-24T18:59:35.184Z,101254.37
2018-07-24T19:02:39.397Z,101255.42
2018-07-24T19:05:43.615Z,101252.97
2018-07-24T19:08:47.827Z,101255.36
2018-07-24T19:11:52.050Z,101258.92
2018-07-24T19:14:56.304Z,101258.99
2018-07-24T19:18:00.555Z,101262.41
2018-07-24T19:21:04.789Z,101266.66
2018-07-24T19:24:09.140Z,101264.83
2018-07-24T19:27:13.340Z,101270.51
2018-07-24T19:30:17.605Z,101267.33
2018-07-24T19:33:21.850Z,101274.38
2018-07-24T19:36:26.060Z,101278.91
2018-07-24T19:39:30.290Z,101287.05
2018-07-24T19:42:34.500Z,101289.73
2018-07-24T19:45:38.768Z,101287.47
2018-07-24T19:48:43.021Z,101293.36
2018-07-24T19:51:47.237Z,101290.84
2018-07-24T19:54:51.453Z,101294.77
2018-07-24T19:57:55.704Z,101296.91
2018-07-24T20:00:59.917Z,101300.71
2018-07-24T20:04:04.137Z,101298.66
2018-07-24T20:07:08.377Z,101299.64
2018-07-24T20:10:12.680Z,101304.00
2018-07-24T20:13:16.619Z,101304.48
2018-07-24T20:16:20.841Z,101308.06
2018-07-24T20:19:25.057Z,101303.28
2018-07-24T20:22:29.273Z,101310.95
2018-07-24T20:25:33.496Z,101311.39
2018-07-24T20:28:37.735Z,101313.50
2018-07-24T20:31:41.945Z,101310.87
2018-07-24T20:34:46.146Z,101316.83
2018-07-24T20:37:50.528Z,101316.92
2018-07-24T20:40:54.754Z,101322.02
2018-07-24T20:43:58.956Z,101321.85
2018-07-24T20:47:03.144Z,101323.33
2018-07-24T20:50:07.393Z,101323.41
2018-07-24T20:53:11.589Z,101327.41
2018-07-24T20:56:15.798Z,101320.85
2018-07-24T20:59:20.309Z,101328.45
2018-07-24T21:02:24.538Z,101330.56
2018-07-24T21:05:28.765Z,101332.59
2018-07-24T21:08:33.021Z,101328.77
2018-07-24T21:11:38.232Z,101331.08
2018-07-24T21:14:42.607Z,101329.75
2018-07-24T21:17:46.866Z,101331.77
2018-07-24T21:20:51.143Z,101321.84
2018-07-24T21:23:55.344Z,101323.31
2018-07-24T21:26:59.552Z,101320.95
2018-07-24T21:30:03.826Z,101316.62
2018-07-24T21:33:08.104Z,101319.43
2018-07-24T21:36:12.352Z,101311.52
2018-07-24T21:39:16.303Z,101309.45
2018-07-24T21:42:20.520Z,101309.52
2018-07-24T21:45:24.717Z,101310.34
2018-07-24T21:48:28.966Z,101308.97
2018-07-24T21:51:33.191Z,101314.87
2018-07-24T21:54:37.398Z,101320.77
2018-07-24T21:57:41.609Z,101312.21
2018-07-24T22:00:45.937Z,101314.58
2018-07-24T22:03:50.053Z,101314.64
2018-07-24T22:06:54.266Z,101325.29
2018-07-24T22:09:58.473Z,101322.85
2018-07-24T22:13:02.696Z,101327.84
2018-07-24T22:16:06.898Z,101324.27
2018-07-24T22:19:11.132Z,101327.92
2018-07-24T22:22:15.329Z,101327.70
2018-07-24T22:25:19.589Z,101330.48
2018-07-24T22:28:23.780Z,101329.66
2018-07-24T22:31:28.030Z,101334.40
2018-07-24T22:34:32.224Z,101336.12
2018-07-24T22:37:36.968Z,101343.38
2018-07-24T22:40:41.168Z,101341.75
2018-07-24T22:43:45.389Z,101337.59
2018-07-24T22:46:49.610Z,101338.51
2018-07-24T22:49:53.833Z,101337.71
2018-07-24T22:52:58.057Z,101341.06
2018-07-24T22:56:02.260Z,101340.01
2018-07-24T22:59:06.516Z,101340.88
2018-07-24T23:02:10.766Z,101340.38
2018-07-24T23:05:14.968Z,101335.19
2018-07-24T23:08:19.197Z,101341.83
2018-07-24T23:11:23.425Z,101338.28
2018-07-24T23:14:27.632Z,101335.84
2018-07-24T23:17:31.852Z,101333.94
2018-07-24T23:20:36.054Z,101340.34
2018-07-24T23:23:40.291Z,101337.34
2018-07-24T23:26:44.503Z,101337.63
2018-07-24T23:29:48.725Z,101339.30
2018-07-24T23:32:53.774Z,101337.68
2018-07-24T23:35:57.994Z,101340.16
2018-07-24T23:39:02.229Z,101341.28
2018-07-24T23:42:06.470Z,101339.09
2018-07-24T23:45:10.673Z,101341.31
2018-07-24T23:48:14.918Z,101342.42
2018-07-24T23:51:19.169Z,101340.80
2018-07-24T23:54:23.373Z,101338.92
2018-07-24T23:57:27.630Z,101342.55
